createdAt,value
2023-10-24T00:02:13.877Z,972.61
2023-10-24T00:07:45.260Z,972.74
2023-10-24T00:13:16.693Z,972.81
2023-10-24T00:18:48.456Z,972.93
2023-10-24T00:24:20.179Z,972.83
2023-10-24T00:29:51.902Z,972.82
2023-10-24T00:35:24.038Z,972.86
2023-10-24T00:40:55.161Z,972.82
2023-10-24T00:46:27.129Z,972.78
2023-10-24T00:51:58.628Z,972.65
2023-10-24T00:57:30.444Z,972.91
2023-10-24T01:03:06.817Z,973.43
2023-10-24T01:08:42.098Z,973.21
2023-10-24T01:14:09.906Z,973.29
2023-10-24T01:19:41.762Z,972.94
2023-10-24T01:25:13.491Z,972.81
2023-10-24T01:30:45.067Z,972.87
2023-10-24T01:36:16.775Z,973.04
2023-10-24T01:41:48.828Z,972.93
2023-10-24T01:47:20.200Z,972.79
2023-10-24T01:52:52.184Z,972.9
2023-10-24T01:58:23.720Z,972.92
2023-10-24T02:04:01.894Z,972.62
2023-10-24T02:09:33.719Z,972.56
2023-10-24T02:15:05.941Z,972.61
2023-10-24T02:20:37.117Z,972.84
2023-10-24T02:26:08.629Z,972.92
2023-10-24T02:31:40.914Z,972.48
2023-10-24T02:37:12.490Z,972.61
2023-10-24T02:42:43.927Z,972.48
2023-10-24T02:48:15.633Z,972.34
2023-10-24T02:53:47.911Z,972.67
2023-10-24T02:59:19.452Z,972.81
2023-10-24T03:04:55.366Z,972.75
2023-10-24T03:10:26.926Z,972.89
2023-10-24T03:15:58.619Z,972.79
2023-10-24T03:21:30.283Z,972.86
2023-10-24T03:27:02.236Z,972.87
2023-10-24T03:32:33.939Z,972.52
2023-10-24T03:38:05.519Z,972.59
2023-10-24T03:43:37.770Z,972.67
2023-10-24T03:49:09.721Z,972.91
2023-10-24T03:54:42.338Z,972.64
2023-10-24T04:00:12.651Z,972.01
2023-10-24T04:05:48.668Z,972.04
2023-10-24T04:11:21.577Z,972.35
2023-10-24T04:16:52.325Z,972.21
2023-10-24T04:22:23.945Z,972.35
2023-10-24T04:27:56.773Z,972.19
2023-10-24T04:33:27.966Z,972.38
2023-10-24T04:38:59.752Z,972.52
2023-10-24T04:44:30.595Z,972.33
2023-10-24T04:50:02.432Z,972.21
2023-10-24T04:55:34.181Z,972.16
2023-10-24T05:01:06.551Z,972.05
2023-10-24T05:06:41.923Z,971.92
2023-10-24T05:12:13.559Z,971.69
2023-10-24T05:17:45.625Z,971.7
2023-10-24T05:23:17.530Z,971.63
2023-10-24T05:28:48.872Z,971.32
2023-10-24T05:34:20.737Z,971.53
2023-10-24T05:39:52.571Z,971.48
2023-10-24T05:45:23.979Z,971.4
2023-10-24T05:50:55.961Z,971.36
2023-10-24T05:56:27.326Z,971.38
2023-10-24T06:01:59.271Z,971.24
2023-10-24T06:07:37.258Z,971.23
2023-10-24T06:13:09.319Z,971.34
2023-10-24T06:18:40.557Z,971.31
2023-10-24T06:24:12.384Z,971.34
2023-10-24T06:29:45.097Z,971.44
2023-10-24T06:35:16.169Z,971.69
2023-10-24T06:40:47.551Z,971.6
2023-10-24T06:46:19.494Z,971.42
2023-10-24T06:51:51.113Z,971.49
2023-10-24T06:57:22.943Z,971.6
2023-10-24T07:02:54.760Z,971.65
2023-10-24T07:08:32.610Z,971.68
2023-10-24T07:14:04.411Z,971.81
2023-10-24T07:19:36.152Z,971.73
2023-10-24T07:25:08.053Z,971.79
2023-10-24T07:30:39.469Z,971.12
2023-10-24T07:36:11.367Z,971.47
2023-10-24T07:41:42.840Z,971.7
2023-10-24T07:47:15.136Z,971.2
2023-10-24T07:52:47.105Z,971.89
2023-10-24T07:58:18.649Z,971.38
2023-10-24T08:03:49.860Z,971.91
2023-10-24T08:09:25.997Z,972.16
2023-10-24T08:14:58.207Z,971.97
2023-10-24T08:20:29.304Z,971.74
2023-10-24T08:26:01.364Z,972.12
2023-10-24T08:32:00.979Z,972.29
2023-10-24T08:37:04.747Z,972.08
2023-10-24T08:42:36.380Z,972.09
2023-10-24T08:48:07.978Z,972.59
2023-10-24T08:53:39.580Z,972.81
2023-10-24T08:59:13.420Z,972.88
2023-10-24T09:04:44.278Z,972.87
2023-10-24T09:10:21.526Z,972.98
2023-10-24T09:15:52.849Z,973.05
2023-10-24T09:21:24.689Z,973.02
2023-10-24T09:26:56.564Z,972.9
2023-10-24T09:32:28.742Z,972.74
2023-10-24T09:38:00.183Z,972.92
2023-10-24T09:43:31.706Z,973.04
2023-10-24T09:49:03.436Z,973.03
2023-10-24T09:54:34.901Z,972.88
2023-10-24T10:00:06.829Z,973.3
2023-10-24T10:05:38.996Z,973.03
2023-10-24T10:11:16.559Z,973.18
2023-10-24T10:16:48.606Z,973.24
2023-10-24T10:22:20.530Z,973.02
2023-10-24T10:27:51.840Z,973.22
2023-10-24T10:33:24.184Z,973.31
2023-10-24T10:38:55.109Z,973.29
2023-10-24T10:44:29.158Z,973.04
2023-10-24T10:49:59.097Z,973.17
2023-10-24T10:55:30.694Z,973.15
2023-10-24T11:01:02.610Z,972.98
2023-10-24T11:06:33.927Z,973.11
2023-10-24T11:12:09.935Z,973.08
2023-10-24T11:17:42.104Z,972.94
2023-10-24T11:23:13.373Z,972.84
2023-10-24T11:28:45.276Z,972.77
2023-10-24T11:34:17.052Z,972.7
2023-10-24T11:39:48.572Z,972.63
2023-10-24T11:45:20.861Z,972.89
2023-10-24T11:50:51.989Z,972.92
2023-10-24T11:56:23.934Z,972.85
2023-10-24T12:01:55.748Z,972.8
2023-10-24T12:07:27.310Z,972.76
2023-10-24T12:13:05.359Z,972.6
2023-10-24T12:18:38.415Z,972.75
2023-10-24T12:24:08.814Z,972.68
2023-10-24T12:29:41.461Z,972.51
2023-10-24T12:35:12.564Z,972.46
2023-10-24T12:40:44.224Z,972.45
2023-10-24T12:46:16.060Z,972.2
2023-10-24T12:51:47.580Z,972.5
2023-10-24T12:57:19.116Z,972.53
2023-10-24T13:02:50.938Z,972.55
2023-10-24T13:08:23.658Z,972.56
2023-10-24T13:14:01.039Z,972.48
2023-10-24T13:19:32.686Z,972.56
2023-10-24T13:25:04.360Z,972.69
2023-10-24T13:31:12.195Z,972.61
2023-10-24T13:36:18.676Z,972.53
2023-10-24T13:41:40.546Z,972.32
2023-10-24T13:47:12.526Z,972.52
2023-10-24T13:52:44.736Z,972.32
2023-10-24T13:58:15.599Z,972.02
2023-10-24T14:03:47.463Z,972.53
2023-10-24T14:09:19.141Z,972.44
2023-10-24T14:14:55.374Z,972.45
2023-10-24T14:20:26.892Z,972.43
2023-10-24T14:25:58.934Z,972.62
2023-10-24T14:31:30.449Z,972.74
2023-10-24T14:37:02.050Z,972.51
2023-10-24T14:42:33.815Z,972.63
2023-10-24T14:48:05.600Z,972.65
2023-10-24T14:53:37.762Z,972.76
2023-10-24T14:59:09.190Z,972.55
2023-10-24T15:04:41.354Z,972.33
2023-10-24T15:10:12.851Z,972.5
2023-10-24T15:15:50.677Z,972.49
2023-10-24T15:21:22.250Z,972.64
2023-10-24T15:26:53.922Z,972.7
2023-10-24T15:32:26.242Z,972.71
2023-10-24T15:37:57.702Z,972.42
2023-10-24T15:43:29.366Z,972.4
2023-10-24T15:49:01.013Z,972.25
2023-10-24T15:54:32.469Z,972.23
2023-10-24T16:00:04.312Z,972.55
2023-10-24T16:05:36.151Z,972.64
2023-10-24T16:11:08.137Z,972.53
2023-10-24T16:16:44.070Z,972.5
2023-10-24T16:22:15.579Z,972.25
2023-10-24T16:27:47.214Z,972.15
2023-10-24T16:33:19.334Z,972.27
2023-10-24T16:38:50.915Z,972.25
2023-10-24T16:44:22.882Z,972.2
2023-10-24T16:49:54.888Z,972.22
2023-10-24T16:55:25.948Z,972.0
2023-10-24T17:00:57.784Z,971.41
2023-10-24T17:06:29.335Z,970.86
2023-10-24T17:12:00.993Z,971.69
2023-10-24T17:17:38.045Z,971.6
2023-10-24T17:23:09.167Z,972.08
2023-10-24T17:28:41.099Z,972.13
2023-10-24T17:34:12.474Z,972.19
2023-10-24T17:39:44.494Z,971.86
2023-10-24T17:45:15.915Z,971.7
2023-10-24T17:50:48.879Z,971.9
2023-10-24T17:56:19.341Z,972.18
2023-10-24T18:01:52.398Z,972.36
2023-10-24T18:07:29.229Z,972.24
2023-10-24T18:12:54.741Z,972.03
2023-10-24T18:18:34.597Z,972.31
2023-10-24T18:24:02.365Z,972.17
2023-10-24T18:29:34.368Z,972.22
2023-10-24T18:35:05.918Z,972.49
2023-10-24T18:40:37.617Z,972.46
2023-10-24T18:46:09.208Z,972.51
2023-10-24T18:51:41.333Z,972.38
2023-10-24T18:57:13.618Z,972.4
2023-10-24T19:02:54.536Z,972.6
2023-10-24T19:08:16.012Z,972.58
2023-10-24T19:13:48.152Z,972.74
2023-10-24T19:19:23.898Z,972.9
2023-10-24T19:24:55.568Z,972.9
2023-10-24T19:30:27.465Z,972.81
2023-10-24T19:35:59.039Z,972.93
2023-10-24T19:41:30.796Z,973.04
2023-10-24T19:47:02.376Z,973.16
2023-10-24T19:52:34.429Z,973.28
2023-10-24T19:58:05.977Z,973.3
2023-10-24T20:03:38.287Z,973.29
2023-10-24T20:09:10.023Z,973.32
2023-10-24T20:14:41.580Z,973.32
2023-10-24T20:20:17.528Z,973.28
2023-10-24T20:25:48.993Z,973.26
2023-10-24T20:31:21.143Z,973.29
2023-10-24T20:36:52.592Z,973.22
2023-10-24T20:42:24.068Z,973.2
2023-10-24T20:47:56.090Z,973.16
2023-10-24T20:53:27.437Z,973.03
2023-10-24T20:58:59.714Z,973.13
2023-10-24T21:04:31.750Z,973.15
2023-10-24T21:10:03.177Z,973.28
2023-10-24T21:15:34.743Z,973.34
2023-10-24T21:21:10.526Z,973.2
2023-10-24T21:26:42.181Z,973.15
2023-10-24T21:32:14.183Z,973.11
2023-10-24T21:37:45.890Z,972.98
2023-10-24T21:43:17.424Z,973.13
2023-10-24T21:48:49.213Z,973.1
2023-10-24T21:54:20.879Z,973.15
2023-10-24T21:59:54.608Z,973.13
2023-10-24T22:05:24.347Z,973.08
2023-10-24T22:10:56.372Z,973.12
2023-10-24T22:16:28.440Z,973.13
2023-10-24T22:22:04.256Z,973.08
2023-10-24T22:27:35.704Z,973.17
2023-10-24T22:33:07.824Z,973.17
2023-10-24T22:38:39.089Z,972.96
2023-10-24T22:44:10.818Z,973.03
2023-10-24T22:49:43.448Z,973.0
2023-10-24T22:55:14.653Z,972.97
2023-10-24T23:00:46.438Z,972.97
2023-10-24T23:06:17.699Z,973.03
2023-10-24T23:11:49.393Z,973.02
2023-10-24T23:17:21.548Z,972.86
2023-10-24T23:22:57.385Z,972.59
2023-10-24T23:28:36.236Z,972.44
2023-10-24T23:34:07.809Z,972.44
2023-10-24T23:39:39.673Z,972.23
2023-10-24T23:45:11.195Z,972.25
2023-10-24T23:50:43.270Z,972.21
2023-10-24T23:56:14.721Z,972.1
